This is the latest recevied weather packets stored in our database for station/object W1ERB-13. If no packets are shown the sender has not sent any weather packets the latest 10 day(s).
| Time | Temp. | Humidity | Pressure | Rain* | Wind** | Luminosity | Snow |
|---|---|---|---|---|---|---|---|
| 1777303904 | 18.33° C | 41% | 1024 hPa | 0 mm | - | 742 W/m² | - |
| 1777303600 | 18.33° C | 41% | 1024.1 hPa | 0 mm | - | 736 W/m² | - |
| 1777303298 | 18.33° C | 44% | 1023.9 hPa | 0 mm | - | 728 W/m² | - |
| 1777302996 | 18.33° C | 45% | 1024.2 hPa | 0 mm | - | 750 W/m² | - |
| 1777302692 | 18.33° C | 41% | 1024 hPa | 0 mm | - | 781 W/m² | - |
| 1777302391 | 18.33° C | 41% | 1024.2 hPa | 0 mm | - | 755 W/m² | - |
| 1777302088 | 17.22° C | 42% | 1024.1 hPa | 0 mm | - | 791 W/m² | - |
| 1777301786 | 17.22° C | 43% | 1024.1 hPa | 0 mm | - | 785 W/m² | - |
| 1777301484 | 17.78° C | 42% | 1024.2 hPa | 0 mm | - | 780 W/m² | - |
| 1777301180 | 17.22° C | 42% | 1024.1 hPa | 0 mm | - | 772 W/m² | - |
| 1777300877 | 17.78° C | 42% | 1024.3 hPa | 0 mm | - | 789 W/m² | - |
| 1777300575 | 16.67° C | 45% | 1024.2 hPa | 0 mm | - | 785 W/m² | - |
| 1777300272 | 16.67° C | 44% | 1024.2 hPa | 0 mm | - | 765 W/m² | - |
| 1777299968 | 17.22° C | 44% | 1024.2 hPa | 0 mm | - | 771 W/m² | - |
| 1777299665 | 16.67° C | 45% | 1024.3 hPa | 0 mm | - | 752 W/m² | - |
| 1777299363 | 17.22° C | 46% | 1024.1 hPa | 0 mm | - | 730 W/m² | - |
| 1777299061 | 16.11° C | 47% | 1024.3 hPa | 0 mm | - | 712 W/m² | - |
| 1777298757 | 16.67° C | 45% | 1024.2 hPa | 0 mm | - | 714 W/m² | - |
| 1777298454 | 15.56° C | 49% | 1024.2 hPa | 0 mm | - | 712 W/m² | - |
| 1777298150 | 15° C | 52% | 1024.1 hPa | 0 mm | - | 672 W/m² | - |
| 1777297844 | 14.44° C | 55% | 1024.1 hPa | 0 mm | - | 653 W/m² | - |
| 1777297543 | 15° C | 53% | 1024.2 hPa | 0 mm | - | 609 W/m² | - |
| 1777297239 | 15° C | 56% | 1023.8 hPa | 0 mm | - | 565 W/m² | - |
| 1777296937 | 13.33° C | 58% | 1024.1 hPa | 0 mm | - | 619 W/m² | - |
| 1777296633 | 13.89° C | 57% | 1024.3 hPa | 0 mm | - | 627 W/m² | - |
* Rain latest hour (hover to see other rain measurements)
** Current wind speed in m/s (hover to see current wind gust speed)